createdAt,value
2022-10-26T00:01:21.665Z,15.37
2022-10-26T00:03:49.300Z,15.32
2022-10-26T00:06:19.274Z,15.26
2022-10-26T00:08:48.593Z,15.29
2022-10-26T00:11:16.553Z,15.29
2022-10-26T00:13:44.552Z,15.31
2022-10-26T00:16:14.901Z,15.23
2022-10-26T00:18:42.829Z,15.25
2022-10-26T00:21:11.859Z,15.25
2022-10-26T00:23:39.699Z,15.32
2022-10-26T00:26:09.400Z,15.36
2022-10-26T00:28:37.595Z,15.35
2022-10-26T00:31:07.424Z,15.35
2022-10-26T00:33:35.062Z,15.35
2022-10-26T00:36:02.655Z,15.40
2022-10-26T00:38:30.634Z,15.34
2022-10-26T00:43:37.713Z,15.33
2022-10-26T00:46:09.401Z,15.32
2022-10-26T00:48:40.767Z,15.29
2022-10-26T00:51:11.494Z,15.26
2022-10-26T00:53:39.916Z,15.27
2022-10-26T00:56:08.516Z,15.33
2022-10-26T00:58:38.476Z,15.29
2022-10-26T01:01:06.291Z,15.24
2022-10-26T01:03:36.803Z,15.27
2022-10-26T01:06:06.304Z,15.23
2022-10-26T01:08:34.323Z,15.20
2022-10-26T01:11:02.694Z,15.22
2022-10-26T01:13:35.731Z,15.20
2022-10-26T01:16:15.632Z,15.27
2022-10-26T01:18:50.380Z,15.25
2022-10-26T01:21:46.279Z,15.23
2022-10-26T01:24:40.215Z,15.29
2022-10-26T01:27:20.764Z,15.32
2022-10-26T01:30:02.666Z,15.31
2022-10-26T01:32:36.682Z,15.28
2022-10-26T01:35:10.219Z,15.24
2022-10-26T01:37:39.992Z,15.18
2022-10-26T01:40:15.876Z,15.20
2022-10-26T01:42:47.978Z,15.26
2022-10-26T01:45:16.698Z,15.24
2022-10-26T01:47:48.403Z,15.17
2022-10-26T01:50:18.536Z,15.19
2022-10-26T01:52:46.179Z,15.23
2022-10-26T01:55:45.010Z,15.25
2022-10-26T01:58:24.661Z,15.23
2022-10-26T02:01:00.199Z,15.25
2022-10-26T02:03:34.931Z,15.25
2022-10-26T02:06:10.858Z,15.31
2022-10-26T02:08:55.850Z,15.34
2022-10-26T02:11:37.174Z,15.29
2022-10-26T02:14:11.122Z,15.35
2022-10-26T02:16:45.361Z,15.35
2022-10-26T02:19:27.739Z,15.36
2022-10-26T02:22:02.232Z,15.37
2022-10-26T02:24:32.989Z,15.34
2022-10-26T02:27:02.982Z,15.36
2022-10-26T02:29:32.621Z,15.33
2022-10-26T02:32:02.423Z,15.35
2022-10-26T02:34:32.085Z,15.34
2022-10-26T02:37:02.574Z,15.33
2022-10-26T02:39:34.307Z,15.31
2022-10-26T02:42:05.404Z,15.38
2022-10-26T02:44:37.503Z,15.35
2022-10-26T02:47:05.230Z,15.37
2022-10-26T02:49:34.220Z,15.41
2022-10-26T02:52:06.749Z,15.32
2022-10-26T02:54:43.014Z,15.28
2022-10-26T02:57:16.338Z,15.23
2022-10-26T02:59:48.664Z,15.17
2022-10-26T03:02:18.642Z,15.21
2022-10-26T03:04:50.255Z,15.19
2022-10-26T03:07:22.201Z,15.13
2022-10-26T03:09:49.878Z,15.22
2022-10-26T03:12:17.674Z,15.27
2022-10-26T03:14:45.443Z,15.20
2022-10-26T03:17:13.026Z,15.21
2022-10-26T03:19:40.636Z,15.29
2022-10-26T03:22:09.538Z,15.24
2022-10-26T03:24:37.118Z,15.21
2022-10-26T03:27:04.678Z,15.20
2022-10-26T03:29:32.235Z,15.16
2022-10-26T03:31:59.813Z,15.12
2022-10-26T03:34:27.412Z,15.18
2022-10-26T03:36:54.968Z,15.25
2022-10-26T03:39:23.876Z,15.32
2022-10-26T03:41:51.468Z,15.31
2022-10-26T03:44:19.098Z,15.32
2022-10-26T03:46:46.721Z,15.18
2022-10-26T03:49:14.305Z,15.13
2022-10-26T03:51:41.917Z,15.08
2022-10-26T03:54:09.804Z,15.08
2022-10-26T03:56:38.687Z,15.11
2022-10-26T03:59:06.714Z,15.13
2022-10-26T04:01:35.380Z,15.14
2022-10-26T04:04:03.026Z,15.18
2022-10-26T04:06:30.669Z,15.23
2022-10-26T04:09:02.312Z,15.16
2022-10-26T04:11:29.923Z,15.10
2022-10-26T04:13:59.597Z,15.12
2022-10-26T04:16:31.045Z,15.18
2022-10-26T04:19:01.105Z,15.11
2022-10-26T04:21:28.636Z,15.08
2022-10-26T04:23:56.334Z,15.12
2022-10-26T04:26:23.902Z,15.10
2022-10-26T04:28:51.489Z,15.03
2022-10-26T04:31:20.387Z,15.08
2022-10-26T04:33:47.960Z,15.13
2022-10-26T04:36:15.546Z,15.15
2022-10-26T04:38:43.146Z,15.10
2022-10-26T04:41:10.728Z,15.14
2022-10-26T04:43:38.286Z,15.06
2022-10-26T04:46:06.121Z,15.01
2022-10-26T04:48:35.233Z,14.98
2022-10-26T04:51:03.043Z,14.94
2022-10-26T04:53:30.586Z,14.98
2022-10-26T04:55:58.507Z,14.98
2022-10-26T04:58:26.351Z,14.97
2022-10-26T05:00:55.520Z,14.98
2022-10-26T05:03:23.615Z,15.06
2022-10-26T05:05:52.505Z,15.15
2022-10-26T05:08:20.079Z,15.22
2022-10-26T05:10:49.854Z,15.19
2022-10-26T05:13:17.840Z,15.09
2022-10-26T05:15:45.565Z,15.13
2022-10-26T05:18:13.287Z,15.10
2022-10-26T05:20:40.907Z,15.10
2022-10-26T05:23:12.374Z,15.16
2022-10-26T05:25:40.067Z,15.13
2022-10-26T05:28:11.727Z,15.11
2022-10-26T05:30:39.298Z,15.10
2022-10-26T05:33:07.619Z,15.04
2022-10-26T05:35:35.203Z,15.01
2022-10-26T05:38:08.369Z,15.09
2022-10-26T05:40:37.420Z,15.06
2022-10-26T05:43:05.846Z,15.12
2022-10-26T05:45:33.463Z,15.12
2022-10-26T05:48:02.880Z,14.99
2022-10-26T05:50:30.799Z,14.97
2022-10-26T05:52:58.377Z,14.96
2022-10-26T05:55:26.834Z,15.00
2022-10-26T05:57:56.496Z,15.10
2022-10-26T06:00:26.551Z,15.17
2022-10-26T06:03:07.732Z,15.16
2022-10-26T06:05:39.818Z,15.09
2022-10-26T06:08:11.043Z,15.09
2022-10-26T06:10:39.446Z,15.06
2022-10-26T06:13:09.033Z,15.10
2022-10-26T06:15:46.543Z,15.02
2022-10-26T06:18:20.933Z,14.97
2022-10-26T06:20:58.988Z,14.94
2022-10-26T06:23:45.364Z,14.89
2022-10-26T06:26:26.431Z,14.87
2022-10-26T06:29:04.006Z,14.85
2022-10-26T06:31:31.572Z,14.87
2022-10-26T06:34:01.099Z,14.87
2022-10-26T06:36:29.838Z,14.82
2022-10-26T06:39:02.730Z,14.81
2022-10-26T06:41:33.509Z,14.81
2022-10-26T06:44:03.490Z,14.84
2022-10-26T06:46:40.095Z,14.79
2022-10-26T06:49:15.031Z,14.82
2022-10-26T06:51:48.325Z,14.89
2022-10-26T06:54:24.121Z,14.90
2022-10-26T06:56:53.406Z,14.99
2022-10-26T06:59:33.429Z,15.09
2022-10-26T07:02:04.194Z,15.17
2022-10-26T07:04:34.102Z,15.23
2022-10-26T07:07:01.814Z,15.28
2022-10-26T07:09:29.367Z,15.28
2022-10-26T07:11:57.129Z,15.23
2022-10-26T07:14:26.056Z,15.20
2022-10-26T07:16:54.380Z,15.14
2022-10-26T07:19:22.050Z,15.10
2022-10-26T07:21:49.956Z,15.13
2022-10-26T07:24:17.562Z,15.13
2022-10-26T07:26:45.205Z,15.20
2022-10-26T07:29:13.902Z,15.22
2022-10-26T07:31:43.130Z,15.17
2022-10-26T07:34:11.091Z,15.23
2022-10-26T07:36:39.410Z,15.27
2022-10-26T07:39:07.047Z,15.34
2022-10-26T07:41:35.161Z,15.38
2022-10-26T07:44:02.936Z,15.41
2022-10-26T07:46:30.531Z,15.44
2022-10-26T07:48:59.582Z,15.47
2022-10-26T07:51:27.120Z,15.50
2022-10-26T07:53:54.701Z,15.53
2022-10-26T07:56:22.777Z,15.56
2022-10-26T07:58:53.164Z,15.62
2022-10-26T08:01:20.959Z,15.67
2022-10-26T08:03:48.999Z,15.79
2022-10-26T08:06:17.920Z,15.94
2022-10-26T08:08:47.654Z,16.05
2022-10-26T08:11:15.788Z,16.23
2022-10-26T08:13:43.790Z,16.36
2022-10-26T08:16:11.837Z,16.44
2022-10-26T08:18:39.566Z,16.60
2022-10-26T08:21:11.571Z,16.74
2022-10-26T08:23:43.021Z,16.78
2022-10-26T08:26:11.740Z,16.76
2022-10-26T08:28:40.166Z,16.79
2022-10-26T08:31:08.244Z,16.85
2022-10-26T08:33:35.868Z,16.96
2022-10-26T08:36:06.174Z,17.02
2022-10-26T08:38:34.517Z,17.02
2022-10-26T08:41:09.110Z,17.11
2022-10-26T08:43:41.918Z,17.05
2022-10-26T08:46:14.742Z,17.03
2022-10-26T08:48:47.228Z,16.99
2022-10-26T08:51:21.495Z,17.01
2022-10-26T08:53:55.476Z,17.10
2022-10-26T08:56:27.297Z,17.13
2022-10-26T08:58:58.170Z,17.19
2022-10-26T09:01:26.308Z,17.38
2022-10-26T09:03:54.049Z,17.47
2022-10-26T09:06:27.563Z,17.95
2022-10-26T09:09:03.472Z,18.22
2022-10-26T09:11:52.720Z,18.34
2022-10-26T09:14:24.804Z,18.28
2022-10-26T09:17:05.719Z,18.29
2022-10-26T09:19:49.421Z,18.26
2022-10-26T09:22:25.037Z,18.65
2022-10-26T09:24:55.972Z,19.13
2022-10-26T09:27:29.733Z,19.19
2022-10-26T09:30:01.265Z,19.17
2022-10-26T09:32:42.622Z,19.22
2022-10-26T09:35:17.246Z,19.11
2022-10-26T09:37:50.327Z,19.09
2022-10-26T09:40:23.727Z,19.10
2022-10-26T09:42:59.314Z,19.13
2022-10-26T09:45:32.111Z,19.55
2022-10-26T09:48:07.472Z,20.03
2022-10-26T09:50:37.901Z,20.47
2022-10-26T09:53:06.154Z,20.29
2022-10-26T09:55:36.721Z,20.28
2022-10-26T09:58:13.403Z,20.18
2022-10-26T10:00:43.043Z,20.00
2022-10-26T10:03:20.699Z,20.01
2022-10-26T10:05:52.826Z,20.04
2022-10-26T10:08:23.131Z,20.00
2022-10-26T10:10:59.972Z,20.10
2022-10-26T10:13:31.459Z,20.04
2022-10-26T10:16:05.248Z,20.53
2022-10-26T10:18:33.775Z,21.52
2022-10-26T10:21:02.043Z,22.66
2022-10-26T10:23:32.453Z,23.26
2022-10-26T10:26:01.974Z,24.59
2022-10-26T10:28:31.696Z,24.17
2022-10-26T10:31:01.071Z,23.26
2022-10-26T10:33:37.792Z,22.47
2022-10-26T10:36:09.941Z,21.99
2022-10-26T10:38:40.235Z,21.53
2022-10-26T10:41:17.827Z,21.44
2022-10-26T10:43:50.478Z,21.59
2022-10-26T10:46:23.910Z,21.58
2022-10-26T10:48:56.153Z,21.98
2022-10-26T10:51:26.667Z,22.16
2022-10-26T10:53:56.740Z,22.16
2022-10-26T10:56:35.318Z,22.45
2022-10-26T10:59:23.205Z,22.38
2022-10-26T11:01:57.211Z,22.19
2022-10-26T11:04:52.409Z,22.03
2022-10-26T11:07:23.979Z,21.90
2022-10-26T11:12:31.479Z,21.62
2022-10-26T11:15:06.086Z,21.36
2022-10-26T11:17:39.704Z,21.09
2022-10-26T11:20:15.069Z,20.90
2022-10-26T11:23:00.979Z,20.71
2022-10-26T11:25:34.343Z,20.59
2022-10-26T11:28:06.889Z,20.54
2022-10-26T11:30:40.731Z,20.48
2022-10-26T11:33:16.996Z,20.50
2022-10-26T11:35:48.075Z,20.43
2022-10-26T11:38:28.253Z,20.39
2022-10-26T11:41:14.971Z,20.21
2022-10-26T11:43:46.498Z,20.14
2022-10-26T11:46:19.465Z,20.07
2022-10-26T11:48:55.510Z,20.09
2022-10-26T11:51:39.827Z,20.10
2022-10-26T11:54:13.098Z,20.10
2022-10-26T11:56:47.016Z,20.09
2022-10-26T11:59:20.509Z,20.08
2022-10-26T12:01:52.095Z,20.10
2022-10-26T12:04:22.308Z,20.15
2022-10-26T12:06:57.025Z,20.29
2022-10-26T12:09:29.988Z,20.34
2022-10-26T12:12:07.746Z,20.41
2022-10-26T12:14:40.158Z,20.49
2022-10-26T12:17:13.854Z,20.58
2022-10-26T12:19:47.335Z,20.73
2022-10-26T12:22:17.784Z,20.98
2022-10-26T12:24:47.047Z,21.36
2022-10-26T12:27:50.629Z,21.95
2022-10-26T12:30:28.214Z,22.74
2022-10-26T12:32:59.276Z,23.45
2022-10-26T12:35:38.991Z,23.65
2022-10-26T12:38:51.862Z,23.47
2022-10-26T12:41:25.084Z,23.29
2022-10-26T12:44:06.114Z,23.33
2022-10-26T12:46:40.912Z,23.31
2022-10-26T12:49:57.199Z,23.35
2022-10-26T12:52:35.943Z,23.34
2022-10-26T12:55:48.707Z,23.50
2022-10-26T12:58:32.677Z,23.60
2022-10-26T13:01:31.800Z,23.58
2022-10-26T13:04:11.312Z,23.46
2022-10-26T13:06:53.958Z,23.36
2022-10-26T13:09:25.340Z,23.22
2022-10-26T13:11:55.573Z,23.01
2022-10-26T13:14:26.784Z,22.88
2022-10-26T13:16:54.691Z,22.77
2022-10-26T13:19:28.245Z,22.77
2022-10-26T13:21:59.879Z,22.81
2022-10-26T13:24:31.868Z,22.75
2022-10-26T13:27:26.507Z,22.53
2022-10-26T13:30:20.964Z,22.38
2022-10-26T13:32:55.256Z,22.26
2022-10-26T13:35:25.891Z,22.16
2022-10-26T13:37:55.890Z,22.07
2022-10-26T13:40:27.025Z,22.01
2022-10-26T13:42:58.114Z,21.97
2022-10-26T13:45:29.091Z,21.81
2022-10-26T13:48:02.411Z,21.70
2022-10-26T13:50:38.881Z,21.72
2022-10-26T13:53:11.169Z,21.71
2022-10-26T13:55:49.179Z,21.68
2022-10-26T13:58:22.889Z,21.63
2022-10-26T14:01:05.828Z,21.67
2022-10-26T14:03:33.493Z,21.73
2022-10-26T14:06:01.831Z,21.67
2022-10-26T14:08:29.528Z,21.60
2022-10-26T14:11:00.451Z,21.60
2022-10-26T14:13:31.667Z,21.63
2022-10-26T14:16:00.230Z,21.67
2022-10-26T14:18:31.301Z,21.60
2022-10-26T14:21:02.356Z,21.59
2022-10-26T14:23:34.625Z,21.58
2022-10-26T14:26:03.999Z,21.60
2022-10-26T14:28:34.313Z,21.63
2022-10-26T14:31:18.036Z,21.50
2022-10-26T14:33:47.989Z,21.50
2022-10-26T14:36:16.724Z,21.45
2022-10-26T14:38:47.585Z,21.49
2022-10-26T14:41:19.247Z,21.52
2022-10-26T14:43:47.344Z,21.44
2022-10-26T14:46:17.282Z,21.39
2022-10-26T14:48:54.465Z,21.30
2022-10-26T14:51:26.302Z,21.24
2022-10-26T14:53:55.414Z,21.22
2022-10-26T14:56:28.693Z,21.16
2022-10-26T14:58:57.634Z,21.10
2022-10-26T15:01:32.108Z,21.06
2022-10-26T15:04:05.645Z,20.96
2022-10-26T15:06:38.558Z,20.95
2022-10-26T15:09:06.865Z,20.93
2022-10-26T15:11:36.263Z,20.91
2022-10-26T15:14:04.192Z,20.94
2022-10-26T15:16:35.630Z,20.90
2022-10-26T15:19:10.311Z,20.84
2022-10-26T15:21:41.022Z,20.78
2022-10-26T15:24:27.299Z,20.73
2022-10-26T15:26:56.890Z,20.70
2022-10-26T15:29:42.454Z,20.71
2022-10-26T15:32:36.896Z,20.61
2022-10-26T15:35:30.483Z,20.57
2022-10-26T15:38:00.770Z,20.50
2022-10-26T15:40:30.489Z,20.47
2022-10-26T15:43:01.368Z,20.47
2022-10-26T15:45:32.863Z,20.40
2022-10-26T15:48:16.654Z,20.36
2022-10-26T15:50:44.340Z,20.31
2022-10-26T15:53:18.094Z,20.28
2022-10-26T15:55:45.734Z,20.24
2022-10-26T15:58:15.754Z,20.21
2022-10-26T16:00:43.670Z,20.15
2022-10-26T16:03:14.530Z,20.27
2022-10-26T16:05:42.213Z,20.16
2022-10-26T16:08:17.069Z,20.11
2022-10-26T16:10:46.219Z,20.04
2022-10-26T16:13:15.758Z,20.03
2022-10-26T16:15:43.503Z,20.04
2022-10-26T16:18:11.075Z,20.01
2022-10-26T16:20:40.739Z,20.00
2022-10-26T16:23:08.517Z,19.98
2022-10-26T16:25:42.543Z,19.95
2022-10-26T16:28:11.827Z,19.84
2022-10-26T16:33:13.725Z,19.70
2022-10-26T16:35:41.392Z,19.68
2022-10-26T16:38:09.745Z,19.63
2022-10-26T16:40:37.373Z,19.59
2022-10-26T16:43:05.029Z,19.53
2022-10-26T16:45:32.627Z,19.52
2022-10-26T16:48:05.850Z,19.50
2022-10-26T16:50:36.295Z,19.45
2022-10-26T16:53:04.294Z,19.43
2022-10-26T16:55:31.986Z,19.39
2022-10-26T16:57:59.710Z,19.38
2022-10-26T17:00:27.280Z,19.35
2022-10-26T17:02:54.903Z,19.30
2022-10-26T17:05:23.919Z,19.25
2022-10-26T17:07:51.832Z,19.23
2022-10-26T17:10:19.633Z,19.17
2022-10-26T17:12:47.525Z,19.13
2022-10-26T17:15:17.400Z,19.08
2022-10-26T17:17:47.518Z,19.13
2022-10-26T17:20:15.269Z,19.15
2022-10-26T17:22:44.220Z,19.13
2022-10-26T17:25:11.844Z,19.11
2022-10-26T17:27:43.486Z,19.10
2022-10-26T17:30:15.113Z,19.09
2022-10-26T17:32:42.774Z,19.09
2022-10-26T17:35:10.379Z,19.08
2022-10-26T17:37:40.057Z,19.06
2022-10-26T17:40:10.140Z,19.02
2022-10-26T17:42:37.709Z,19.01
2022-10-26T17:45:05.959Z,18.98
2022-10-26T17:47:33.567Z,18.95
2022-10-26T17:50:01.187Z,18.93
2022-10-26T17:52:29.040Z,18.90
2022-10-26T17:54:59.212Z,18.88
2022-10-26T17:57:30.844Z,18.83
2022-10-26T17:59:58.384Z,18.78
2022-10-26T18:02:26.410Z,18.73
2022-10-26T18:04:54.190Z,18.73
2022-10-26T18:07:21.930Z,18.70
2022-10-26T18:09:49.548Z,18.69
2022-10-26T18:12:17.178Z,18.68
2022-10-26T18:14:46.150Z,18.71
2022-10-26T18:17:13.697Z,18.73
2022-10-26T18:19:41.263Z,18.74
2022-10-26T18:22:08.859Z,18.76
2022-10-26T18:24:36.531Z,18.76
2022-10-26T18:27:04.143Z,18.77
2022-10-26T18:29:33.077Z,18.77
2022-10-26T18:32:04.272Z,18.78
2022-10-26T18:34:31.843Z,18.74
2022-10-26T18:36:59.441Z,18.75
2022-10-26T18:39:27.055Z,18.70
2022-10-26T18:41:54.622Z,18.70
2022-10-26T18:44:22.733Z,18.68
2022-10-26T18:46:51.942Z,18.66
2022-10-26T18:49:21.074Z,18.65
2022-10-26T18:51:49.015Z,18.63
2022-10-26T18:54:16.699Z,18.60
2022-10-26T18:56:44.259Z,18.56
2022-10-26T18:59:12.940Z,18.48
2022-10-26T19:01:42.183Z,18.37
2022-10-26T19:04:11.374Z,18.31
2022-10-26T19:06:45.018Z,18.15
2022-10-26T19:09:12.603Z,18.01
2022-10-26T19:11:42.230Z,17.89
2022-10-26T19:14:10.253Z,17.84
2022-10-26T19:16:47.508Z,17.75
2022-10-26T19:19:16.512Z,17.72
2022-10-26T19:21:46.824Z,17.78
2022-10-26T19:24:18.829Z,17.86
2022-10-26T19:26:46.964Z,17.88
2022-10-26T19:29:16.622Z,17.93
2022-10-26T19:31:44.689Z,17.90
2022-10-26T19:34:13.389Z,17.90
2022-10-26T19:36:44.779Z,17.88
2022-10-26T19:39:15.243Z,17.84
2022-10-26T19:41:43.395Z,17.75
2022-10-26T19:44:11.867Z,17.75
2022-10-26T19:46:39.750Z,17.70
2022-10-26T19:49:08.097Z,17.62
2022-10-26T19:51:35.825Z,17.49
2022-10-26T19:54:05.938Z,17.35
2022-10-26T19:56:36.199Z,17.25
2022-10-26T19:59:04.769Z,17.20
2022-10-26T20:01:32.821Z,17.13
2022-10-26T20:04:02.273Z,17.08
2022-10-26T20:06:30.671Z,17.04
2022-10-26T20:08:58.438Z,17.09
2022-10-26T20:11:25.994Z,17.15
2022-10-26T20:13:55.819Z,17.13
2022-10-26T20:16:23.464Z,17.13
2022-10-26T20:18:51.053Z,17.13
2022-10-26T20:21:18.855Z,17.17
2022-10-26T20:23:46.882Z,17.19
2022-10-26T20:26:18.453Z,17.17
2022-10-26T20:28:48.084Z,17.27
2022-10-26T20:31:17.145Z,17.27
2022-10-26T20:33:44.705Z,17.21
2022-10-26T20:36:12.398Z,17.21
2022-10-26T20:38:40.896Z,17.13
2022-10-26T20:41:12.166Z,17.06
2022-10-26T20:43:41.315Z,17.13
2022-10-26T20:46:11.516Z,17.21
2022-10-26T20:48:41.023Z,17.10
2022-10-26T20:51:16.744Z,17.03
2022-10-26T20:53:52.388Z,16.98
2022-10-26T20:56:24.822Z,16.86
2022-10-26T20:58:54.671Z,16.65
2022-10-26T21:01:25.348Z,16.48
2022-10-26T21:03:54.838Z,16.44
2022-10-26T21:06:23.080Z,16.52
2022-10-26T21:08:51.548Z,16.58
2022-10-26T21:11:20.402Z,16.63
2022-10-26T21:13:49.889Z,16.58
2022-10-26T21:16:18.429Z,16.62
2022-10-26T21:18:46.173Z,16.63
2022-10-26T21:21:15.119Z,16.60
2022-10-26T21:23:42.836Z,16.63
2022-10-26T21:26:10.883Z,16.63
2022-10-26T21:28:41.371Z,16.58
2022-10-26T21:31:11.023Z,16.53
2022-10-26T21:33:38.988Z,16.55
2022-10-26T21:36:08.898Z,16.54
2022-10-26T21:38:37.878Z,16.47
2022-10-26T21:41:06.578Z,16.44
2022-10-26T21:43:34.913Z,16.42
2022-10-26T21:46:03.928Z,16.50
2022-10-26T21:48:32.815Z,16.51
2022-10-26T21:51:02.537Z,16.51
2022-10-26T21:53:30.674Z,16.51
2022-10-26T21:56:03.020Z,16.48
2022-10-26T21:58:31.415Z,16.42
2022-10-26T22:01:05.882Z,16.35
2022-10-26T22:03:33.783Z,16.35
2022-10-26T22:06:01.488Z,16.39
2022-10-26T22:08:29.106Z,16.40
2022-10-26T22:10:57.301Z,16.40
2022-10-26T22:13:26.308Z,16.40
2022-10-26T22:16:02.034Z,16.32
2022-10-26T22:18:29.611Z,16.30
2022-10-26T22:20:58.172Z,16.21
2022-10-26T22:23:26.068Z,16.17
2022-10-26T22:25:53.684Z,16.11
2022-10-26T22:28:21.298Z,16.11
2022-10-26T22:30:50.215Z,16.23
2022-10-26T22:33:17.754Z,16.25
2022-10-26T22:35:45.362Z,16.21
2022-10-26T22:38:12.978Z,16.22
2022-10-26T22:40:40.550Z,16.18
2022-10-26T22:43:08.145Z,16.13
2022-10-26T22:45:35.749Z,16.07
2022-10-26T22:48:04.755Z,15.98
2022-10-26T22:50:32.273Z,15.93
2022-10-26T22:52:59.872Z,15.90
2022-10-26T22:55:27.433Z,15.89
2022-10-26T22:57:55.359Z,15.85
2022-10-26T23:00:23.214Z,15.80
2022-10-26T23:02:50.818Z,15.72
2022-10-26T23:05:19.720Z,15.69
2022-10-26T23:07:47.353Z,15.69
2022-10-26T23:10:15.079Z,15.73
2022-10-26T23:12:42.662Z,15.70
2022-10-26T23:15:10.987Z,15.64
2022-10-26T23:17:38.598Z,15.67
2022-10-26T23:20:07.309Z,15.62
2022-10-26T23:22:36.302Z,15.56
2022-10-26T23:25:03.957Z,15.54
2022-10-26T23:27:31.582Z,15.51
2022-10-26T23:29:59.182Z,15.47
2022-10-26T23:32:26.718Z,15.46
2022-10-26T23:34:54.283Z,15.42
2022-10-26T23:37:21.867Z,15.38
2022-10-26T23:39:50.790Z,15.33
2022-10-26T23:42:18.344Z,15.31
2022-10-26T23:44:45.950Z,15.32
2022-10-26T23:47:13.524Z,15.37
2022-10-26T23:49:41.107Z,15.51
2022-10-26T23:52:08.716Z,15.49
2022-10-26T23:54:36.333Z,15.40
2022-10-26T23:57:05.603Z,15.43
2022-10-26T23:59:33.216Z,15.44
